John G — WDF2677 — position and weather

sailwx.info

Track history (hours):
 
Tides and Currents Weather Stations Pressure Air Temp Water Temp Dewpoint Dewpoint Depression Visibility Wind Speed Wind Dir Waves Ship Positions

John G

Owner: Marquette Transportation Company Offshore LLC, Jefferson, LA. More information available from US FCC via Universal Licensing System and Coast Guard Vessel Documentation Center.

Last reported at 2015-Apr-27 01:08 UTC. Time now 2015-Apr-27 20:41 UTC.
Position N 30°03' W 094°02'.

Length 30 m; draft 3.3 m.

Type: Towing. MMSI: 367009680.

Date/timePositionNaut miles runAvg speedWind from/ knotsBaromVisibWave heightAir tempDewpointWater temp
2015-Apr-27 01:08N 30°03' W 094°02'0 0.0
2015-Apr-26 20:08N 30°03' W 094°02'0 0.0
2015-Apr-26 16:04N 30°03' W 094°02'0 0.0
2015-Apr-26 15:33N 30°03' W 094°02'0 0.0
2015-Apr-26 14:33N 30°03' W 094°02'0 0.0
2015-Apr-26 12:18N 30°03' W 094°02'0 0.0
2015-Apr-26 11:33N 30°03' W 094°02'0 0.0
2015-Apr-26 10:27N 30°03' W 094°02'0 0.0
2015-Apr-26 09:33N 30°03' W 094°02'0 0.0
2015-Apr-26 08:33N 30°03' W 094°02'0 0.0
2015-Apr-26 07:33N 30°03' W 094°02'55 1.4
2015-Apr-24 17:33N 29°33' W 094°55'6 6.3
2015-Apr-24 16:33N 29°39' W 094°58'6 5.6
2015-Apr-24 15:33N 29°44' W 095°02'5 4.6
2015-Apr-24 14:33N 29°46' W 095°07'0 0.3
2015-Apr-24 13:33N 29°46' W 095°07'0 0.2
2015-Apr-24 12:33N 29°46' W 095°07'0 0.0
2015-Apr-24 11:33N 29°46' W 095°07'0 0.0
2015-Apr-24 10:33N 29°46' W 095°07'0 0.0
2015-Apr-24 09:33N 29°46' W 095°07'0 0.0
2015-Apr-24 08:33N 29°46' W 095°07'0 0.0
2015-Apr-24 07:33N 29°46' W 095°07'0 0.0
2015-Apr-24 06:33N 29°46' W 095°07'0 0.0
2015-Apr-24 05:33N 29°46' W 095°07'0 0.0
2015-Apr-24 04:33N 29°46' W 095°07'0 0.0
2015-Apr-24 03:33N 29°46' W 095°07'0 0.0
2015-Apr-24 02:33N 29°46' W 095°07'0 0.0
2015-Apr-24 01:33N 29°46' W 095°07'0 0.0
2015-Apr-24 00:33N 29°46' W 095°07'0 0.0
2015-Apr-23 23:33N 29°46' W 095°07'0 0.0
2015-Apr-23 22:33N 29°46' W 095°07'0 0.0
2015-Apr-23 21:33N 29°46' W 095°07'2 2.1
2015-Apr-23 20:33N 29°46' W 095°05'1 1.3
2015-Apr-23 19:33N 29°47' W 095°04'0 0.0
2015-Apr-23 18:32N 29°47' W 095°04'1 1.1
2015-Apr-23 17:33N 29°46' W 095°05'2 1.7
2015-Apr-23 16:33N 29°46' W 095°07'1 0.8
2015-Apr-23 15:33N 29°45' W 095°06'3 2.7
2015-Apr-23 14:33N 29°47' W 095°04'0 0.2
2015-Apr-23 13:16N 29°47' W 095°04'0 0.7
2015-Apr-23 12:33N 29°47' W 095°04'2 2.0
2015-Apr-23 11:33N 29°46' W 095°06'0 0.0
2015-Apr-23 10:33N 29°45' W 095°06'0 0.0
2015-Apr-23 09:33N 29°45' W 095°06'2 2.5
2015-Apr-23 08:33N 29°47' W 095°04'1 1.1
2015-Apr-23 07:33N 29°46' W 095°05'0 0.0
2015-Apr-23 06:33N 29°46' W 095°05'0 0.0
2015-Apr-23 05:33N 29°46' W 095°05'0 0.0
2015-Apr-23 04:33N 29°46' W 095°05'0 0.0
2015-Apr-23 03:33N 29°46' W 095°05'873878.0
2015-Apr-23 02:33N 29°46' W 111°51'873873.1
2015-Apr-23 01:33N 29°46' W 095°05'1 1.2
2015-Apr-23 00:33N 29°45' W 095°04'6 5.5
2015-Apr-22 23:33N 29°41' W 094°59'7 6.5
2015-Apr-22 22:33N 29°35' W 094°56'7 7.1
2015-Apr-22 21:33N 29°30' W 094°52'  
Track history (hours):
 
Tides and Currents Weather Stations Pressure Air Temp Water Temp Dewpoint Dewpoint Depression Visibility Wind Speed Wind Dir Waves Ship Positions

John G

Owner: Marquette Transportation Company Offshore LLC, Jefferson, LA. More information available from US FCC via Universal Licensing System and Coast Guard Vessel Documentation Center.

Last reported at 2015-Apr-27 01:08 UTC. Time now 2015-Apr-27 20:41 UTC.
Position N 30°03' W 094°02'.

Length 30 m; draft 3.3 m.

Type: Towing. MMSI: 367009680.

Date/timePositionNaut miles runAvg speedWind from/ knotsBaromVisibWave heightAir tempDewpointWater temp
2015-Apr-27 01:08N 30°03' W 094°02'0 0.0
2015-Apr-26 20:08N 30°03' W 094°02'0 0.0
2015-Apr-26 16:04N 30°03' W 094°02'0 0.0
2015-Apr-26 15:33N 30°03' W 094°02'0 0.0
2015-Apr-26 14:33N 30°03' W 094°02'0 0.0
2015-Apr-26 12:18N 30°03' W 094°02'0 0.0
2015-Apr-26 11:33N 30°03' W 094°02'0 0.0
2015-Apr-26 10:27N 30°03' W 094°02'0 0.0
2015-Apr-26 09:33N 30°03' W 094°02'0 0.0
2015-Apr-26 08:33N 30°03' W 094°02'0 0.0
2015-Apr-26 07:33N 30°03' W 094°02'55 1.4
2015-Apr-24 17:33N 29°33' W 094°55'6 6.3
2015-Apr-24 16:33N 29°39' W 094°58'6 5.6
2015-Apr-24 15:33N 29°44' W 095°02'5 4.6
2015-Apr-24 14:33N 29°46' W 095°07'0 0.3
2015-Apr-24 13:33N 29°46' W 095°07'0 0.2
2015-Apr-24 12:33N 29°46' W 095°07'0 0.0
2015-Apr-24 11:33N 29°46' W 095°07'0 0.0
2015-Apr-24 10:33N 29°46' W 095°07'0 0.0
2015-Apr-24 09:33N 29°46' W 095°07'0 0.0
2015-Apr-24 08:33N 29°46' W 095°07'0 0.0
2015-Apr-24 07:33N 29°46' W 095°07'0 0.0
2015-Apr-24 06:33N 29°46' W 095°07'0 0.0
2015-Apr-24 05:33N 29°46' W 095°07'0 0.0
2015-Apr-24 04:33N 29°46' W 095°07'0 0.0
2015-Apr-24 03:33N 29°46' W 095°07'0 0.0
2015-Apr-24 02:33N 29°46' W 095°07'0 0.0
2015-Apr-24 01:33N 29°46' W 095°07'0 0.0
2015-Apr-24 00:33N 29°46' W 095°07'0 0.0
2015-Apr-23 23:33N 29°46' W 095°07'0 0.0
2015-Apr-23 22:33N 29°46' W 095°07'0 0.0
2015-Apr-23 21:33N 29°46' W 095°07'2 2.1
2015-Apr-23 20:33N 29°46' W 095°05'1 1.3
2015-Apr-23 19:33N 29°47' W 095°04'0 0.0
2015-Apr-23 18:32N 29°47' W 095°04'1 1.1
2015-Apr-23 17:33N 29°46' W 095°05'2 1.7
2015-Apr-23 16:33N 29°46' W 095°07'1 0.8
2015-Apr-23 15:33N 29°45' W 095°06'3 2.7
2015-Apr-23 14:33N 29°47' W 095°04'0 0.2
2015-Apr-23 13:16N 29°47' W 095°04'0 0.7
2015-Apr-23 12:33N 29°47' W 095°04'2 2.0
2015-Apr-23 11:33N 29°46' W 095°06'0 0.0
2015-Apr-23 10:33N 29°45' W 095°06'0 0.0
2015-Apr-23 09:33N 29°45' W 095°06'2 2.5
2015-Apr-23 08:33N 29°47' W 095°04'1 1.1
2015-Apr-23 07:33N 29°46' W 095°05'0 0.0
2015-Apr-23 06:33N 29°46' W 095°05'0 0.0
2015-Apr-23 05:33N 29°46' W 095°05'0 0.0
2015-Apr-23 04:33N 29°46' W 095°05'0 0.0
2015-Apr-23 03:33N 29°46' W 095°05'873878.0
2015-Apr-23 02:33N 29°46' W 111°51'873873.1
2015-Apr-23 01:33N 29°46' W 095°05'1 1.2
2015-Apr-23 00:33N 29°45' W 095°04'6 5.5
2015-Apr-22 23:33N 29°41' W 094°59'7 6.5
2015-Apr-22 22:33N 29°35' W 094°56'7 7.1
2015-Apr-22 21:33N 29°30' W 094°52'  

Dump ship's entire track history